This is the latest recevied weather packets stored in our database for station/object KE8TTQ-1. If no packets are shown the sender has not sent any weather packets the latest 10 day(s).
| Time | Temp. | Humidity | Pressure | Rain* | Wind** | Luminosity | Snow |
|---|---|---|---|---|---|---|---|
| 1777871662 | 10° C | 10% | - | - | - | - | - |
| 1777870462 | 10° C | 10% | - | - | - | - | - |
| 1777865662 | 12.22° C | 85% | 1014.9 hPa | - | - | - | - |
| 1777864462 | 13.33° C | 77% | 1014.9 hPa | - | - | - | - |
| 1777862061 | 12.22° C | 10% | - | - | - | - | - |
| 1777860862 | 12.22° C | 10% | - | - | - | - | - |
| 1777859662 | 12.22° C | 97% | 1014.9 hPa | - | - | - | - |
| 1777858462 | 14.44° C | 46% | 1014.9 hPa | - | - | - | - |
| 1777857262 | 14.44° C | 43% | 1014.9 hPa | - | - | - | - |
| 1777856062 | 15° C | 42% | 1014.5 hPa | - | - | - | - |
| 1777854861 | 15° C | 41% | 1014.2 hPa | - | - | - | - |
| 1777853662 | 15.56° C | 40% | 1014.2 hPa | - | - | - | - |
| 1777851261 | 16.11° C | 39% | 1014.9 hPa | - | - | - | - |
| 1777846463 | 16.67° C | 36% | 1015.5 hPa | - | - | - | - |
| 1777845262 | 16.67° C | 34% | 1015.9 hPa | - | - | - | - |
| 1777844061 | 17.78° C | 35% | 1016.2 hPa | - | - | - | - |
| 1777826060 | 18.89° C | 32% | 1019.9 hPa | - | - | - | - |
| 1777824860 | 22.22° C | 29% | 1020.3 hPa | - | - | - | - |
| 1777822461 | 22.78° C | 31% | 1020.6 hPa | - | - | - | - |
| 1777821260 | 18.89° C | 34% | 1020.6 hPa | - | - | - | - |
| 1777820060 | 21.11° C | 35% | 1020.6 hPa | - | - | - | - |
| 1777818860 | 19.44° C | 37% | 1020.6 hPa | - | - | - | - |
| 1777817660 | 15° C | 50% | 1020.9 hPa | - | - | - | - |
| 1777816460 | 11.11° C | 65% | 1020.9 hPa | - | - | - | - |
| 1777815260 | 9.44° C | 89% | 1020.9 hPa | - | - | - | - |
* Rain since midnight (hover to see other rain measurements)
** Current wind speed in m/s (hover to see current wind gust speed)